createdAt,value
2023-05-14T00:00:44.676Z,11.64
2023-05-14T00:03:11.711Z,11.59
2023-05-14T00:05:38.453Z,11.59
2023-05-14T00:08:05.264Z,11.53
2023-05-14T00:10:31.802Z,11.49
2023-05-14T00:12:58.427Z,11.47
2023-05-14T00:15:24.907Z,11.42
2023-05-14T00:17:51.464Z,11.35
2023-05-14T00:20:18.044Z,11.37
2023-05-14T00:22:44.640Z,11.30
2023-05-14T00:25:11.181Z,11.32
2023-05-14T00:27:37.924Z,11.33
2023-05-14T00:30:06.977Z,11.31
2023-05-14T00:32:33.638Z,11.29
2023-05-14T00:35:00.376Z,11.25
2023-05-14T00:37:26.868Z,11.24
2023-05-14T00:39:53.325Z,11.21
2023-05-14T00:42:19.879Z,11.18
2023-05-14T00:44:46.315Z,11.17
2023-05-14T00:47:13.271Z,11.16
2023-05-14T00:49:40.889Z,11.12
2023-05-14T00:52:07.797Z,11.07
2023-05-14T00:54:36.410Z,11.04
2023-05-14T00:57:04.741Z,11.03
2023-05-14T00:59:31.436Z,10.96
2023-05-14T01:01:58.116Z,10.95
2023-05-14T01:04:24.849Z,10.92
2023-05-14T01:07:29.737Z,10.87
2023-05-14T01:10:08.529Z,10.83
2023-05-14T01:12:47.729Z,10.80
2023-05-14T01:15:17.182Z,10.76
2023-05-14T01:17:48.726Z,10.73
2023-05-14T01:20:15.616Z,10.68
2023-05-14T01:22:42.625Z,10.68
2023-05-14T01:25:09.565Z,10.61
2023-05-14T01:27:42.737Z,10.65
2023-05-14T01:30:27.412Z,10.65
2023-05-14T01:32:58.251Z,10.60
2023-05-14T01:35:28.697Z,10.57
2023-05-14T01:38:03.752Z,10.55
2023-05-14T01:40:32.791Z,10.55
2023-05-14T01:42:59.370Z,10.51
2023-05-14T01:45:26.272Z,10.49
2023-05-14T01:47:52.891Z,10.50
2023-05-14T01:50:19.665Z,10.47
2023-05-14T01:52:48.274Z,10.41
2023-05-14T01:55:15.969Z,10.41
2023-05-14T01:57:42.437Z,10.44
2023-05-14T02:00:09.415Z,10.41
2023-05-14T02:02:36.112Z,10.39
2023-05-14T02:05:03.907Z,10.39
2023-05-14T02:07:32.064Z,10.35
2023-05-14T02:09:58.620Z,10.36
2023-05-14T02:12:25.092Z,10.35
2023-05-14T02:14:51.799Z,10.31
2023-05-14T02:17:18.544Z,10.26
2023-05-14T02:19:45.221Z,10.20
2023-05-14T02:22:12.092Z,10.23
2023-05-14T02:24:38.880Z,10.21
2023-05-14T02:27:06.272Z,10.16
2023-05-14T02:29:32.737Z,10.14
2023-05-14T02:31:59.250Z,10.13
2023-05-14T02:34:25.974Z,10.10
2023-05-14T02:36:52.506Z,10.11
2023-05-14T02:39:19.011Z,10.11
2023-05-14T02:41:45.573Z,10.10
2023-05-14T02:44:12.234Z,10.07
2023-05-14T02:46:38.747Z,10.07
2023-05-14T02:49:05.321Z,10.04
2023-05-14T02:51:31.771Z,10.06
2023-05-14T02:53:58.322Z,10.02
2023-05-14T02:56:24.961Z,10.03
2023-05-14T02:58:51.481Z,9.99
2023-05-14T03:01:18.853Z,10.00
2023-05-14T03:03:45.838Z,9.94
2023-05-14T03:06:12.738Z,9.94
2023-05-14T03:08:39.226Z,9.92
2023-05-14T03:11:06.882Z,9.89
2023-05-14T03:13:33.356Z,9.88
2023-05-14T03:15:59.850Z,9.88
2023-05-14T03:18:28.308Z,9.86
2023-05-14T03:20:54.856Z,9.83
2023-05-14T03:23:21.321Z,9.84
2023-05-14T03:25:47.836Z,9.82
2023-05-14T03:28:14.348Z,9.81
2023-05-14T03:30:40.969Z,9.80
2023-05-14T03:33:07.647Z,9.80
2023-05-14T03:35:34.264Z,9.79
2023-05-14T03:38:00.797Z,9.78
2023-05-14T03:40:29.528Z,9.79
2023-05-14T03:42:56.176Z,9.81
2023-05-14T03:45:22.713Z,9.83
2023-05-14T03:47:49.224Z,9.83
2023-05-14T03:50:15.914Z,9.85
2023-05-14T03:52:42.405Z,9.85
2023-05-14T03:55:09.381Z,9.86
2023-05-14T03:57:36.729Z,9.88
2023-05-14T04:00:04.612Z,9.89
2023-05-14T04:02:31.206Z,9.85
2023-05-14T04:04:57.779Z,9.86
2023-05-14T04:07:24.372Z,9.90
2023-05-14T04:09:50.803Z,9.90
2023-05-14T04:12:17.307Z,9.89
2023-05-14T04:14:43.801Z,9.88
2023-05-14T04:17:10.245Z,9.87
2023-05-14T04:19:36.776Z,9.87
2023-05-14T04:22:03.437Z,9.86
2023-05-14T04:24:29.885Z,9.88
2023-05-14T04:26:56.339Z,9.87
2023-05-14T04:29:22.863Z,9.87
2023-05-14T04:31:50.178Z,9.89
2023-05-14T04:34:16.656Z,9.89
2023-05-14T04:36:43.250Z,9.88
2023-05-14T04:39:09.948Z,9.90
2023-05-14T04:41:36.864Z,9.94
2023-05-14T04:44:03.959Z,9.97
2023-05-14T04:46:30.561Z,10.03
2023-05-14T04:48:57.678Z,10.13
2023-05-14T04:51:24.450Z,10.17
2023-05-14T04:53:50.979Z,10.26
2023-05-14T04:56:17.542Z,10.29
2023-05-14T04:58:44.032Z,10.32
2023-05-14T05:01:10.572Z,10.38
2023-05-14T05:03:37.192Z,10.45
2023-05-14T05:06:03.822Z,10.50
2023-05-14T05:08:30.815Z,10.55
2023-05-14T05:10:57.235Z,10.61
2023-05-14T05:13:23.719Z,10.66
2023-05-14T05:15:51.132Z,10.70
2023-05-14T05:18:17.790Z,10.73
2023-05-14T05:20:44.325Z,10.73
2023-05-14T05:23:10.946Z,10.72
2023-05-14T05:25:37.450Z,10.72
2023-05-14T05:28:04.128Z,10.75
2023-05-14T05:30:30.806Z,10.78
2023-05-14T05:32:57.725Z,10.84
2023-05-14T05:35:24.594Z,10.88
2023-05-14T05:37:51.093Z,10.91
2023-05-14T05:40:17.823Z,10.86
2023-05-14T05:42:44.630Z,10.89
2023-05-14T05:45:11.307Z,10.90
2023-05-14T05:47:37.814Z,10.96
2023-05-14T05:50:04.686Z,11.02
2023-05-14T05:52:31.244Z,11.06
2023-05-14T05:54:58.143Z,11.16
2023-05-14T05:57:27.076Z,11.22
2023-05-14T05:59:53.660Z,11.27
2023-05-14T06:02:20.371Z,11.30
2023-05-14T06:04:46.889Z,11.29
2023-05-14T06:07:13.348Z,11.30
2023-05-14T06:09:39.851Z,11.30
2023-05-14T06:12:06.784Z,11.33
2023-05-14T06:14:33.548Z,11.35
2023-05-14T06:17:00.273Z,11.49
2023-05-14T06:19:26.946Z,11.66
2023-05-14T06:21:53.439Z,11.73
2023-05-14T06:24:20.390Z,11.72
2023-05-14T06:26:48.790Z,11.84
2023-05-14T06:29:15.346Z,12.05
2023-05-14T06:31:42.129Z,12.08
2023-05-14T06:34:09.181Z,12.24
2023-05-14T06:36:35.654Z,12.31
2023-05-14T06:39:02.151Z,12.42
2023-05-14T06:41:29.551Z,12.37
2023-05-14T06:43:56.022Z,12.55
2023-05-14T06:46:22.504Z,12.62
2023-05-14T06:48:49.122Z,12.72
2023-05-14T06:51:15.738Z,12.86
2023-05-14T06:53:42.243Z,12.98
2023-05-14T06:56:08.709Z,13.07
2023-05-14T06:58:35.396Z,12.93
2023-05-14T07:01:01.966Z,13.00
2023-05-14T07:03:29.224Z,13.16
2023-05-14T07:05:55.754Z,13.40
2023-05-14T07:08:22.198Z,13.49
2023-05-14T07:10:48.679Z,13.68
2023-05-14T07:13:15.169Z,13.79
2023-05-14T07:15:41.672Z,13.85
2023-05-14T07:18:08.767Z,13.73
2023-05-14T07:20:35.327Z,13.83
2023-05-14T07:23:01.934Z,13.97
2023-05-14T07:25:28.482Z,14.11
2023-05-14T07:27:55.228Z,14.12
2023-05-14T07:30:26.702Z,13.99
2023-05-14T07:32:53.352Z,14.14
2023-05-14T07:35:19.998Z,14.43
2023-05-14T07:37:46.554Z,14.47
2023-05-14T07:40:13.353Z,14.68
2023-05-14T07:42:39.853Z,14.94
2023-05-14T07:45:06.928Z,15.04
2023-05-14T07:47:33.769Z,16.00
2023-05-14T07:50:00.379Z,17.51
2023-05-14T07:52:26.892Z,18.32
2023-05-14T07:54:53.480Z,18.91
2023-05-14T07:57:20.188Z,19.31
2023-05-14T07:59:47.765Z,19.91
2023-05-14T08:02:16.084Z,20.03
2023-05-14T08:04:42.812Z,20.21
2023-05-14T08:07:09.358Z,20.59
2023-05-14T08:09:35.949Z,19.65
2023-05-14T08:12:02.508Z,18.96
2023-05-14T08:14:29.089Z,18.75
2023-05-14T08:16:55.836Z,19.12
2023-05-14T08:19:24.089Z,19.69
2023-05-14T08:21:51.375Z,19.39
2023-05-14T08:24:18.973Z,19.93
2023-05-14T08:26:45.518Z,20.52
2023-05-14T08:29:13.426Z,20.71
2023-05-14T08:31:42.278Z,20.98
2023-05-14T08:34:08.863Z,21.54
2023-05-14T08:36:35.531Z,21.76
2023-05-14T08:39:02.047Z,21.95
2023-05-14T08:41:28.958Z,22.44
2023-05-14T08:44:12.029Z,21.08
2023-05-14T08:46:39.879Z,21.04
2023-05-14T08:49:32.412Z,21.53
2023-05-14T08:52:00.177Z,21.85
2023-05-14T08:54:28.710Z,22.67
2023-05-14T08:56:55.688Z,23.08
2023-05-14T08:59:22.111Z,22.74
2023-05-14T09:01:51.938Z,22.66
2023-05-14T09:04:24.334Z,22.33
2023-05-14T09:06:53.476Z,22.70
2023-05-14T09:09:24.348Z,22.55
2023-05-14T09:11:52.416Z,23.23
2023-05-14T09:14:19.360Z,22.98
2023-05-14T09:16:48.142Z,23.18
2023-05-14T09:19:15.879Z,23.65
2023-05-14T09:21:44.588Z,23.59
2023-05-14T09:24:19.380Z,22.55
2023-05-14T09:26:51.713Z,22.60
2023-05-14T09:29:18.420Z,22.73
2023-05-14T09:31:45.273Z,22.48
2023-05-14T09:34:12.349Z,22.92
2023-05-14T09:36:38.864Z,22.14
2023-05-14T09:39:05.724Z,21.38
2023-05-14T09:41:32.292Z,21.89
2023-05-14T09:43:58.769Z,22.19
2023-05-14T09:46:30.051Z,22.06
2023-05-14T09:48:56.902Z,22.13
2023-05-14T09:51:23.930Z,22.29
2023-05-14T09:53:53.416Z,22.85
2023-05-14T09:56:21.643Z,22.65
2023-05-14T09:58:48.637Z,22.13
2023-05-14T10:01:18.904Z,21.86
2023-05-14T10:03:46.244Z,21.85
2023-05-14T10:06:15.082Z,22.65
2023-05-14T10:08:44.823Z,21.89
2023-05-14T10:11:22.337Z,22.59
2023-05-14T10:13:59.847Z,22.09
2023-05-14T10:16:34.060Z,22.21
2023-05-14T10:19:14.932Z,22.17
2023-05-14T10:21:47.376Z,22.25
2023-05-14T10:24:14.803Z,21.91
2023-05-14T10:26:42.166Z,22.27
2023-05-14T10:29:12.768Z,21.69
2023-05-14T10:31:49.727Z,21.65
2023-05-14T10:34:40.814Z,21.95
2023-05-14T10:37:24.728Z,22.45
2023-05-14T10:39:58.991Z,21.94
2023-05-14T10:42:32.493Z,22.01
2023-05-14T10:45:12.611Z,21.76
2023-05-14T10:47:42.531Z,22.20
2023-05-14T10:50:11.348Z,21.94
2023-05-14T10:52:38.188Z,21.84
2023-05-14T10:55:10.072Z,21.98
2023-05-14T10:57:39.857Z,22.05
2023-05-14T11:00:10.724Z,21.89
2023-05-14T11:02:43.124Z,21.85
2023-05-14T11:05:17.706Z,21.83
2023-05-14T11:07:45.512Z,22.04
2023-05-14T11:10:14.752Z,22.28
2023-05-14T11:12:43.683Z,22.52
2023-05-14T11:15:12.671Z,22.73
2023-05-14T11:17:41.569Z,22.78
2023-05-14T11:20:09.476Z,22.79
2023-05-14T11:22:37.670Z,23.10
2023-05-14T11:25:05.035Z,23.18
2023-05-14T11:27:34.009Z,22.85
2023-05-14T11:30:03.957Z,22.68
2023-05-14T11:32:32.902Z,22.68
2023-05-14T11:34:59.371Z,22.88
2023-05-14T11:37:26.144Z,23.09
2023-05-14T11:39:55.151Z,23.00
2023-05-14T11:42:22.569Z,23.00
2023-05-14T11:44:51.935Z,23.06
2023-05-14T11:47:19.917Z,22.88
2023-05-14T11:49:47.233Z,22.59
2023-05-14T11:52:15.080Z,22.26
2023-05-14T11:54:43.205Z,22.30
2023-05-14T11:57:12.577Z,22.47
2023-05-14T11:59:39.438Z,22.61
2023-05-14T12:02:12.477Z,22.82
2023-05-14T12:04:39.771Z,22.98
2023-05-14T12:07:15.255Z,23.01
2023-05-14T12:09:49.682Z,22.69
2023-05-14T12:12:22.019Z,22.76
2023-05-14T12:14:49.891Z,22.71
2023-05-14T12:17:23.353Z,22.81
2023-05-14T12:19:51.747Z,22.80
2023-05-14T12:22:19.150Z,22.80
2023-05-14T12:24:56.599Z,23.10
2023-05-14T12:27:24.613Z,23.04
2023-05-14T12:30:19.072Z,23.21
2023-05-14T12:32:46.361Z,23.35
2023-05-14T12:35:12.862Z,23.38
2023-05-14T12:37:40.051Z,23.48
2023-05-14T12:40:09.628Z,23.23
2023-05-14T12:42:36.523Z,23.30
2023-05-14T12:45:06.963Z,23.12
2023-05-14T12:47:33.558Z,23.28
2023-05-14T12:50:00.195Z,23.34
2023-05-14T12:52:37.698Z,23.34
2023-05-14T12:55:06.504Z,23.30
2023-05-14T12:57:35.382Z,23.29
2023-05-14T13:00:02.494Z,23.37
2023-05-14T13:02:29.076Z,23.54
2023-05-14T13:04:55.657Z,23.53
2023-05-14T13:07:22.288Z,23.46
2023-05-14T13:09:48.782Z,23.38
2023-05-14T13:12:15.568Z,23.27
2023-05-14T13:14:42.167Z,23.13
2023-05-14T13:17:08.733Z,23.23
2023-05-14T13:19:35.398Z,23.37
2023-05-14T13:22:01.949Z,23.08
2023-05-14T13:24:28.448Z,23.05
2023-05-14T13:26:54.931Z,22.99
2023-05-14T13:29:21.425Z,22.95
2023-05-14T13:31:47.976Z,23.08
2023-05-14T13:34:14.695Z,23.14
2023-05-14T13:36:43.484Z,23.16
2023-05-14T13:39:14.606Z,23.40
2023-05-14T13:41:41.525Z,23.28
2023-05-14T13:44:08.000Z,23.33
2023-05-14T13:46:34.971Z,23.06
2023-05-14T13:49:01.590Z,23.18
2023-05-14T13:51:28.079Z,22.94
2023-05-14T13:56:26.135Z,23.10
2023-05-14T13:58:52.824Z,23.10
2023-05-14T14:01:19.469Z,23.07
2023-05-14T14:03:46.002Z,22.80
2023-05-14T14:06:12.593Z,22.84
2023-05-14T14:08:39.089Z,23.05
2023-05-14T14:11:05.840Z,22.97
2023-05-14T14:13:32.284Z,22.69
2023-05-14T14:15:58.927Z,22.82
2023-05-14T14:18:25.761Z,22.71
2023-05-14T14:20:52.546Z,22.61
2023-05-14T14:23:19.684Z,22.50
2023-05-14T14:25:46.273Z,22.64
2023-05-14T14:28:12.904Z,22.81
2023-05-14T14:30:39.436Z,22.45
2023-05-14T14:33:06.063Z,22.49
2023-05-14T14:35:33.405Z,22.58
2023-05-14T14:37:59.872Z,22.46
2023-05-14T14:40:26.395Z,22.39
2023-05-14T14:42:52.896Z,22.21
2023-05-14T14:45:19.389Z,22.35
2023-05-14T14:47:46.794Z,22.37
2023-05-14T14:50:13.604Z,22.32
2023-05-14T14:52:45.416Z,22.48
2023-05-14T14:55:12.517Z,22.43
2023-05-14T14:57:39.053Z,22.37
2023-05-14T15:00:06.883Z,22.15
2023-05-14T15:02:33.668Z,22.05
2023-05-14T15:05:00.341Z,22.00
2023-05-14T15:07:26.819Z,21.83
2023-05-14T15:09:53.263Z,21.93
2023-05-14T15:12:19.804Z,21.85
2023-05-14T15:14:46.236Z,21.64
2023-05-14T15:17:12.722Z,21.49
2023-05-14T15:19:39.169Z,21.77
2023-05-14T15:22:05.727Z,21.89
2023-05-14T15:24:32.225Z,22.00
2023-05-14T15:26:58.704Z,22.04
2023-05-14T15:29:25.289Z,22.07
2023-05-14T15:31:51.875Z,21.87
2023-05-14T15:34:18.458Z,21.77
2023-05-14T15:36:44.934Z,21.76
2023-05-14T15:39:11.530Z,21.71
2023-05-14T15:41:38.030Z,21.70
2023-05-14T15:44:04.753Z,21.53
2023-05-14T15:46:31.377Z,21.53
2023-05-14T15:48:58.635Z,21.59
2023-05-14T15:51:25.160Z,21.44
2023-05-14T15:53:54.067Z,21.37
2023-05-14T15:56:22.454Z,21.25
2023-05-14T15:58:49.710Z,21.03
2023-05-14T16:01:16.271Z,21.06
2023-05-14T16:03:42.938Z,21.23
2023-05-14T16:06:11.580Z,21.05
2023-05-14T16:08:38.324Z,21.13
2023-05-14T16:11:05.520Z,21.21
2023-05-14T16:13:32.127Z,21.54
2023-05-14T16:15:59.534Z,21.72
2023-05-14T16:18:26.377Z,21.64
2023-05-14T16:20:53.521Z,21.55
2023-05-14T16:23:20.009Z,21.37
2023-05-14T16:25:46.566Z,21.06
2023-05-14T16:28:13.572Z,20.92
2023-05-14T16:30:40.106Z,20.77
2023-05-14T16:33:06.841Z,20.65
2023-05-14T16:35:33.971Z,20.57
2023-05-14T16:38:00.600Z,20.20
2023-05-14T16:40:27.146Z,20.25
2023-05-14T16:42:53.690Z,20.23
2023-05-14T16:45:20.262Z,20.24
2023-05-14T16:47:46.756Z,20.07
2023-05-14T16:50:13.325Z,20.07
2023-05-14T16:52:39.968Z,20.01
2023-05-14T16:55:06.758Z,19.94
2023-05-14T16:57:34.211Z,19.84
2023-05-14T17:00:00.809Z,19.64
2023-05-14T17:02:27.297Z,19.54
2023-05-14T17:04:55.281Z,19.44
2023-05-14T17:07:21.860Z,19.33
2023-05-14T17:09:48.711Z,19.14
2023-05-14T17:12:15.364Z,19.00
2023-05-14T17:14:41.997Z,18.99
2023-05-14T17:17:08.538Z,18.86
2023-05-14T17:19:35.111Z,18.75
2023-05-14T17:22:01.647Z,18.77
2023-05-14T17:24:28.295Z,18.71
2023-05-14T17:26:54.725Z,18.54
2023-05-14T17:29:23.417Z,18.51
2023-05-14T17:31:51.154Z,18.42
2023-05-14T17:34:17.766Z,18.29
2023-05-14T17:36:44.345Z,18.08
2023-05-14T17:39:10.854Z,17.95
2023-05-14T17:41:37.470Z,17.81
2023-05-14T17:44:04.104Z,17.72
2023-05-14T17:46:30.779Z,17.53
2023-05-14T17:48:58.321Z,17.57
2023-05-14T17:51:25.238Z,17.38
2023-05-14T17:53:51.719Z,17.27
2023-05-14T17:56:18.823Z,17.10
2023-05-14T17:58:45.975Z,17.01
2023-05-14T18:01:12.760Z,16.82
2023-05-14T18:03:39.334Z,16.83
2023-05-14T18:06:06.102Z,16.69
2023-05-14T18:08:32.580Z,16.73
2023-05-14T18:11:00.734Z,16.61
2023-05-14T18:13:27.204Z,16.44
2023-05-14T18:15:54.389Z,16.43
2023-05-14T18:18:21.707Z,16.19
2023-05-14T18:20:49.389Z,16.19
2023-05-14T18:23:16.042Z,16.14
2023-05-14T18:25:42.811Z,15.98
2023-05-14T18:28:09.621Z,15.99
2023-05-14T18:30:36.205Z,15.93
2023-05-14T18:33:03.966Z,15.86
2023-05-14T18:35:30.884Z,15.77
2023-05-14T18:37:57.429Z,15.64
2023-05-14T18:40:23.964Z,15.50
2023-05-14T18:42:50.648Z,15.35
2023-05-14T18:45:17.183Z,15.28
2023-05-14T18:47:43.800Z,15.22
2023-05-14T18:50:10.523Z,15.21
2023-05-14T18:52:37.054Z,14.98
2023-05-14T18:55:03.892Z,15.01
2023-05-14T18:57:32.181Z,14.80
2023-05-14T19:00:03.877Z,14.74
2023-05-14T19:02:30.862Z,14.59
2023-05-14T19:04:57.454Z,14.53
2023-05-14T19:07:23.937Z,14.50
2023-05-14T19:09:50.687Z,14.44
2023-05-14T19:12:17.217Z,14.45
2023-05-14T19:14:43.718Z,14.39
2023-05-14T19:17:10.376Z,14.32
2023-05-14T19:19:37.853Z,14.26
2023-05-14T19:22:04.750Z,14.15
2023-05-14T19:24:31.182Z,14.01
2023-05-14T19:26:57.803Z,14.02
2023-05-14T19:29:24.876Z,13.90
2023-05-14T19:31:51.345Z,13.90
2023-05-14T19:34:17.867Z,13.83
2023-05-14T19:36:44.496Z,13.78
2023-05-14T19:39:11.191Z,13.73
2023-05-14T19:41:37.786Z,13.71
2023-05-14T19:44:04.290Z,13.63
2023-05-14T19:46:30.891Z,13.50
2023-05-14T19:48:57.380Z,13.51
2023-05-14T19:51:23.894Z,13.35
2023-05-14T19:53:50.495Z,13.30
2023-05-14T19:56:17.131Z,13.29
2023-05-14T19:58:44.465Z,13.27
2023-05-14T20:01:12.015Z,13.22
2023-05-14T20:03:38.984Z,13.14
2023-05-14T20:06:07.002Z,13.07
2023-05-14T20:08:33.651Z,12.99
2023-05-14T20:11:00.246Z,12.97
2023-05-14T20:13:26.750Z,12.90
2023-05-14T20:15:55.015Z,12.86
2023-05-14T20:18:21.875Z,12.86
2023-05-14T20:20:49.170Z,12.77
2023-05-14T20:23:15.942Z,12.80
2023-05-14T20:25:43.107Z,12.73
2023-05-14T20:28:10.337Z,12.73
2023-05-14T20:30:37.075Z,12.73
2023-05-14T20:33:04.038Z,12.69
2023-05-14T20:35:31.085Z,12.64
2023-05-14T20:37:57.552Z,12.64
2023-05-14T20:40:24.716Z,12.61
2023-05-14T20:42:51.718Z,12.55
2023-05-14T20:45:18.353Z,12.53
2023-05-14T20:47:44.964Z,12.50
2023-05-14T20:50:11.768Z,12.46
2023-05-14T20:52:38.251Z,12.42
2023-05-14T20:55:05.192Z,12.41
2023-05-14T20:57:31.817Z,12.40
2023-05-14T20:59:58.307Z,12.38
2023-05-14T21:02:25.102Z,12.33
2023-05-14T21:04:52.325Z,12.30
2023-05-14T21:07:18.860Z,12.26
2023-05-14T21:09:50.718Z,12.26
2023-05-14T21:12:17.242Z,12.23
2023-05-14T21:14:43.720Z,12.22
2023-05-14T21:17:10.633Z,12.23
2023-05-14T21:19:37.257Z,12.17
2023-05-14T21:22:03.752Z,12.14
2023-05-14T21:24:30.258Z,12.13
2023-05-14T21:26:56.783Z,12.11
2023-05-14T21:29:25.304Z,12.06
2023-05-14T21:31:51.858Z,12.02
2023-05-14T21:34:18.330Z,12.01
2023-05-14T21:36:44.811Z,11.98
2023-05-14T21:39:11.405Z,11.97
2023-05-14T21:41:37.861Z,11.96
2023-05-14T21:44:04.384Z,11.93
2023-05-14T21:46:31.308Z,11.95
2023-05-14T21:48:57.849Z,11.92
2023-05-14T21:51:24.523Z,11.91
2023-05-14T21:53:51.063Z,11.90
2023-05-14T21:56:17.614Z,11.86
2023-05-14T21:58:44.990Z,11.85
2023-05-14T22:01:11.541Z,11.80
2023-05-14T22:03:38.324Z,11.79
2023-05-14T22:06:05.396Z,11.77
2023-05-14T22:08:32.232Z,11.72
2023-05-14T22:10:58.789Z,11.68
2023-05-14T22:13:25.300Z,11.68
2023-05-14T22:16:01.193Z,11.68
2023-05-14T22:18:36.589Z,11.69
2023-05-14T22:21:03.641Z,11.68
2023-05-14T22:23:30.246Z,11.68
2023-05-14T22:25:57.390Z,11.63
2023-05-14T22:28:24.016Z,11.60
2023-05-14T22:30:50.705Z,11.54
2023-05-14T22:33:19.143Z,11.61
2023-05-14T22:35:45.583Z,11.59
2023-05-14T22:38:12.684Z,11.54
2023-05-14T22:40:39.247Z,11.54
2023-05-14T22:43:05.713Z,11.51
2023-05-14T22:45:32.179Z,11.50
2023-05-14T22:47:58.744Z,11.49
2023-05-14T22:50:25.688Z,11.50
2023-05-14T22:52:52.205Z,11.51
2023-05-14T22:55:18.757Z,11.51
2023-05-14T22:57:45.527Z,11.50
2023-05-14T23:00:12.712Z,11.44
2023-05-14T23:02:39.388Z,11.44
2023-05-14T23:05:07.867Z,11.47
2023-05-14T23:07:35.024Z,11.40
2023-05-14T23:10:01.881Z,11.44
2023-05-14T23:12:28.350Z,11.42
2023-05-14T23:14:54.903Z,11.42
2023-05-14T23:17:21.436Z,11.38
2023-05-14T23:19:47.971Z,11.41
2023-05-14T23:22:14.459Z,11.42
2023-05-14T23:24:40.920Z,11.42
2023-05-14T23:27:07.656Z,11.43
2023-05-14T23:29:34.136Z,11.43
2023-05-14T23:32:00.691Z,11.45
2023-05-14T23:34:27.271Z,11.43
2023-05-14T23:36:53.927Z,11.45
2023-05-14T23:39:21.466Z,11.45
2023-05-14T23:41:48.052Z,11.47
2023-05-14T23:44:15.117Z,11.43
2023-05-14T23:46:41.762Z,11.45
2023-05-14T23:49:08.292Z,11.42
2023-05-14T23:51:34.792Z,11.44
2023-05-14T23:54:01.237Z,11.42
2023-05-14T23:56:29.249Z,11.40
2023-05-14T23:58:56.709Z,11.41
